Maynard, Massachusetts
Current Conditions -  °F | °C
As of 8:25 AM on Thursday 18 Dec 2014 (Local Time) from KBED Reporting Station
Overcast Overcast  
Wind Chill: 27°   Ceiling: 3600
Heat Index: 34°   Visibility: 10mi
Dew Point: 33°   Wind: 8mph
Humidity: 96%   Direction: 250°WSW
Pressure: 29.76"   Gusts: NA
Location:  42.43°N, 71.46°W
Report Text: KBED 181325Z 25007KT 10SM BKN036 OVC050 01/01 A2976 RMK AO2 UPB10E21RAB21E22SNE10 P0000 T00110006
Loading
Personal Weather Stations






























Interactive Weather Map New forecast layout! Learn more

10-Day Weather Forecast

Advertisements
Track Severe Weather on mobile